TimeEST,TemperatureF,Dew PointF,Humidity,Sea Level PressureIn,VisibilityMPH,Wind Direction,Wind SpeedMPH,Gust SpeedMPH,PrecipitationIn,Events,Conditions,WindDirDegrees,DateUTC
12:56 AM,55.0,53.1,93,30.29,10.0,SSW,4.6,-,N/A,,Clear,210,2012-12-03 05:56:00
1:56 AM,54.0,53.1,97,30.29,9.0,Calm,Calm,-,N/A,,Clear,0,2012-12-03 06:56:00
2:56 AM,55.0,54.0,96,30.29,7.0,Calm,Calm,-,N/A,,Clear,0,2012-12-03 07:56:00
3:56 AM,55.9,55.9,100,30.28,7.0,SW,5.8,-,N/A,,Clear,230,2012-12-03 08:56:00
4:56 AM,-9999,-9999,N/A,30.29,8.0,SW,4.6,-,N/A,,Clear,230,2012-12-03 09:56:00
5:56 AM,55.0,55.0,100,30.29,4.0,Calm,Calm,-,N/A,,Clear,0,2012-12-03 10:56:00
6:08 AM,53.6,53.6,100,30.29,1.8,Calm,Calm,-,N/A,,Clear,0,2012-12-03 11:08:00
6:18 AM,55.4,55.4,100,30.29,3.0,SW,3.5,-,N/A,,Clear,220,2012-12-03 11:18:00
6:56 AM,55.9,55.9,100,30.30,6.0,SW,4.6,-,N/A,,Clear,230,2012-12-03 11:56:00
7:56 AM,57.9,57.9,100,30.31,7.0,West,4.6,-,N/A,,Clear,260,2012-12-03 12:56:00
9:56 AM,63.0,57.9,84,30.32,10.0,WSW,8.1,-,N/A,,Clear,240,2012-12-03 14:56:00
11:56 AM,68.0,59.0,73,30.28,10.0,SW,8.1,-,N/A,,Clear,220,2012-12-03 16:56:00
12:56 PM,68.0,57.9,70,30.26,10.0,SW,9.2,-,N/A,,Clear,230,2012-12-03 17:56:00
1:56 PM,66.0,57.9,75,30.25,10.0,SSW,9.2,-,N/A,,Clear,210,2012-12-03 18:56:00
2:56 PM,66.9,57.9,73,30.25,10.0,SW,6.9,-,N/A,,Clear,230,2012-12-03 19:56:00
3:56 PM,64.0,57.9,80,30.25,10.0,SSW,9.2,-,N/A,,Clear,210,2012-12-03 20:56:00
4:56 PM,60.1,57.0,90,30.26,10.0,SW,4.6,-,N/A,,Clear,220,2012-12-03 21:56:00
5:56 PM,61.0,57.0,87,30.28,10.0,Calm,Calm,-,N/A,,Clear,0,2012-12-03 22:56:00
6:56 PM,60.1,57.0,90,30.29,10.0,WSW,3.5,-,N/A,,Clear,240,2012-12-03 23:56:00
7:56 PM,59.0,57.0,93,30.29,10.0,SW,3.5,-,N/A,,Clear,230,2012-12-04 00:56:00
8:56 PM,59.0,57.0,93,30.29,10.0,WSW,4.6,-,N/A,,Clear,240,2012-12-04 01:56:00
9:56 PM,59.0,57.0,93,30.30,10.0,WSW,4.6,-,N/A,,Clear,240,2012-12-04 02:56:00
10:56 PM,59.0,57.0,93,30.30,10.0,WSW,4.6,-,0.01,,Clear,240,2012-12-04 03:56:00
11:56 PM,55.9,55.0,97,30.30,10.0,Calm,Calm,-,N/A,,Clear,0,2012-12-04 04:56:00